Time;durP1;ratioP1;P1;durP2;ratioP2;P2;SDS_P1;SDS_P2;PMS_P1;PMS_P2;Temp;Humidity;BMP_temperature;BMP_pressure;BME280_temperature;BME280_humidity;BME280_pressure;Samples;Min_cycle;Max_cycle;Signal;HPM_P1;HPM_P2
2023/11/15 00:04:01;;;;;;;0.98;0.38;;;;;;;;;;4893246;29;19918;-90
2023/11/15 00:06:39;;;;;;;1.35;0.47;;;;;;;;;;4868562;29;20037;-90
2023/11/15 00:09:25;;;;;;;0.82;0.70;;;;;;;;;;4892487;29;20044;-92
2023/11/15 00:12:04;;;;;;;0.47;0.10;;;;;;;;;;4889922;29;20087;-90
2023/11/15 00:15:02;;;;;;;;;;;;;;;;;;;;;
2023/11/15 00:17:30;;;;;;;0.45;0.30;;;;;;;;;;4934231;29;20044;-90
2023/11/15 00:20:22;;;;;;;1.15;0.73;;;;;;;;;;4914196;29;20536;-92
2023/11/15 00:29:49;;;;;;;0.17;0.10;;;;;;;;;;4814194;29;20425;-91
2023/11/15 00:32:31;;;;;;;7.55;0.90;;;;;;;;;;4781916;29;20047;-91
2023/11/15 00:35:24;;;;;;;0.20;0.00;;;;;;;;;;4806141;29;20073;-90
2023/11/15 00:53:14;;;;;;;0.40;0.20;;;;;;;;;;4920704;29;20055;-90
2023/11/15 00:55:43;;;;;;;6.53;0.73;;;;;;;;;;4914340;29;20055;-89
2023/11/15 00:58:29;;;;;;;0.47;0.20;;;;;;;;;;4911795;29;20047;-89
2023/11/15 01:01:06;;;;;;;0.20;0.20;;;;;;;;;;4910958;29;20056;-89
2023/11/15 01:03:37;;;;;;;0.30;0.20;;;;;;;;;;4912637;29;20964;-89
2023/11/15 01:06:27;;;;;;;3.78;0.65;;;;;;;;;;4921172;29;20035;-89
2023/11/15 01:09:16;;;;;;;2.20;0.93;;;;;;;;;;4915736;29;20425;-88
2023/11/15 01:11:42;;;;;;;0.57;0.50;;;;;;;;;;4921796;29;20039;-89
2023/11/15 01:14:22;;;;;;;;;;;;;;;;;;;;;
2023/11/15 01:19:19;;;;;;;0.60;0.32;;;;;;;;;;4922123;29;20159;-90
2023/11/15 01:21:57;;;;;;;3.08;0.75;;;;;;;;;;4908156;29;20487;-89
2023/11/15 01:24:24;;;;;;;0.85;0.47;;;;;;;;;;4913167;29;20047;-89
2023/11/15 01:26:53;;;;;;;1.48;0.32;;;;;;;;;;4915205;29;20051;-88
2023/11/15 01:29:19;;;;;;;0.20;0.15;;;;;;;;;;4908987;29;20040;-88
2023/11/15 01:32:00;;;;;;;2.83;0.80;;;;;;;;;;4913499;29;20059;-88
2023/11/15 01:34:27;;;;;;;0.37;0.30;;;;;;;;;;4904508;29;20718;-89
2023/11/15 01:36:54;;;;;;;2.70;0.90;;;;;;;;;;4910832;29;20036;-88
2023/11/15 01:39:20;;;;;;;1.23;0.77;;;;;;;;;;4904221;29;20054;-89
2023/11/15 01:41:50;;;;;;;1.08;0.52;;;;;;;;;;4911378;29;20546;-88
2023/11/15 01:44:16;;;;;;;1.15;0.60;;;;;;;;;;4905607;29;20059;-88
2023/11/15 01:46:45;;;;;;;2.88;0.80;;;;;;;;;;4899061;29;20042;-88
2023/11/15 01:49:11;;;;;;;0.65;0.40;;;;;;;;;;4905835;29;20043;-90
2023/11/15 01:51:37;;;;;;;0.80;0.60;;;;;;;;;;4908622;29;20044;-90
2023/11/15 01:54:04;;;;;;;0.88;0.40;;;;;;;;;;4904057;29;20051;-89
2023/11/15 01:56:31;;;;;;;2.05;0.95;;;;;;;;;;4905239;29;20123;-91
2023/11/15 01:58:58;;;;;;;3.22;1.10;;;;;;;;;;4910062;29;20100;-90
2023/11/15 02:01:30;;;;;;;1.60;0.47;;;;;;;;;;4912301;29;20039;-90
2023/11/15 02:04:02;;;;;;;6.55;1.65;;;;;;;;;;4902286;29;20116;-89
2023/11/15 02:06:38;;;;;;;1.38;0.25;;;;;;;;;;4910197;29;20067;-89
2023/11/15 02:09:05;;;;;;;0.25;0.15;;;;;;;;;;4909804;29;20078;-89
2023/11/15 02:11:37;;;;;;;1.65;0.65;;;;;;;;;;4913435;29;20106;-90
2023/11/15 02:14:03;;;;;;;0.43;0.25;;;;;;;;;;4907568;29;20051;-90
2023/11/15 02:16:32;;;;;;;0.17;0.17;;;;;;;;;;4914946;29;20043;-89
2023/11/15 02:18:58;;;;;;;3.00;0.50;;;;;;;;;;4902680;29;20079;-89
2023/11/15 02:21:24;;;;;;;0.38;0.30;;;;;;;;;;4910858;29;20052;-89
2023/11/15 02:23:51;;;;;;;0.80;0.60;;;;;;;;;;4902864;29;20036;-89
2023/11/15 02:26:19;;;;;;;0.20;0.13;;;;;;;;;;4898700;29;20048;-88
2023/11/15 02:28:48;;;;;;;0.52;0.30;;;;;;;;;;4902245;29;20151;-89
2023/11/15 02:31:16;;;;;;;1.35;0.65;;;;;;;;;;4905660;29;20135;-89
2023/11/15 02:33:44;;;;;;;1.05;0.17;;;;;;;;;;4904526;29;20051;-88
2023/11/15 02:36:13;;;;;;;1.13;0.38;;;;;;;;;;4904514;29;20046;-89
2023/11/15 02:38:39;;;;;;;0.68;0.20;;;;;;;;;;4905283;29;20055;-89
2023/11/15 02:41:06;;;;;;;0.43;0.10;;;;;;;;;;4910962;29;20044;-89
2023/11/15 02:43:35;;;;;;;0.00;0.00;;;;;;;;;;4903831;29;20502;-89
2023/11/15 02:46:01;;;;;;;0.47;0.17;;;;;;;;;;4910521;29;20135;-89
2023/11/15 02:48:27;;;;;;;0.98;0.38;;;;;;;;;;4908668;29;20107;-89
2023/11/15 02:50:56;;;;;;;0.85;0.20;;;;;;;;;;4912394;29;20047;-87
2023/11/15 02:53:25;;;;;;;1.67;0.25;;;;;;;;;;4909104;29;20050;-88
2023/11/15 02:55:51;;;;;;;1.40;0.40;;;;;;;;;;4902052;29;20382;-89
2023/11/15 02:58:18;;;;;;;4.18;0.47;;;;;;;;;;4911097;29;22077;-88
2023/11/15 03:00:44;;;;;;;2.47;0.25;;;;;;;;;;4914485;29;20056;-89
2023/11/15 03:03:12;;;;;;;0.57;0.50;;;;;;;;;;4907947;29;20040;-88
2023/11/15 03:05:39;;;;;;;0.43;0.20;;;;;;;;;;4904735;29;20047;-88
2023/11/15 03:08:05;;;;;;;0.55;0.28;;;;;;;;;;4909156;29;20539;-88
2023/11/15 03:10:32;;;;;;;0.95;0.15;;;;;;;;;;4907991;29;20114;-88
2023/11/15 03:13:01;;;;;;;0.32;0.30;;;;;;;;;;4902687;29;20047;-88
2023/11/15 03:15:27;;;;;;;7.75;0.98;;;;;;;;;;4909201;29;20110;-88
2023/11/15 03:17:53;;;;;;;1.05;0.30;;;;;;;;;;4898100;29;20513;-89
2023/11/15 03:20:20;;;;;;;0.38;0.28;;;;;;;;;;4910416;29;20062;-89
2023/11/15 03:22:48;;;;;;;0.00;0.00;;;;;;;;;;4905958;29;20728;-89
2023/11/15 03:25:14;;;;;;;2.95;0.30;;;;;;;;;;4911367;29;20040;-89
2023/11/15 03:27:41;;;;;;;0.10;0.03;;;;;;;;;;4913382;29;20067;-88
2023/11/15 03:30:10;;;;;;;0.50;0.40;;;;;;;;;;4905092;29;20403;-88
2023/11/15 03:32:41;;;;;;;0.45;0.30;;;;;;;;;;4906574;29;20078;-88
2023/11/15 03:35:07;;;;;;;0.27;0.10;;;;;;;;;;4903700;29;20048;-88
2023/11/15 03:37:33;;;;;;;0.32;0.10;;;;;;;;;;4897361;29;20060;-88
2023/11/15 03:39:59;;;;;;;1.23;0.50;;;;;;;;;;4904428;29;20398;-88
2023/11/15 03:42:26;;;;;;;0.20;0.17;;;;;;;;;;4909942;29;20047;-89
2023/11/15 03:44:52;;;;;;;0.45;0.30;;;;;;;;;;4906381;29;20043;-88
2023/11/15 03:47:18;;;;;;;0.32;0.10;;;;;;;;;;4905717;29;20058;-89
2023/11/15 03:49:44;;;;;;;0.50;0.20;;;;;;;;;;4902152;29;20044;-88
2023/11/15 03:52:10;;;;;;;4.43;0.80;;;;;;;;;;4904311;29;20054;-88
2023/11/15 03:54:36;;;;;;;1.25;0.43;;;;;;;;;;4901726;29;20069;-89
2023/11/15 03:57:04;;;;;;;0.70;0.35;;;;;;;;;;4897189;29;20486;-88
2023/11/15 03:59:30;;;;;;;1.15;0.20;;;;;;;;;;4908411;29;20500;-88
2023/11/15 04:01:59;;;;;;;0.93;0.55;;;;;;;;;;4914373;29;20139;-88
2023/11/15 04:04:27;;;;;;;0.85;0.28;;;;;;;;;;4904242;29;20040;-88
2023/11/15 04:07:41;;;;;;;;;;;;;;;;;;;;;
2023/11/15 04:23:18;;;;;;;1.35;0.68;;;;;;;;;;4848320;29;20081;-90
2023/11/15 04:25:45;;;;;;;2.30;0.70;;;;;;;;;;4919093;23;20061;-89
2023/11/15 04:28:22;;;;;;;1.17;0.45;;;;;;;;;;4897386;29;20130;-89
2023/11/15 04:31:10;;;;;;;0.82;0.50;;;;;;;;;;4890777;29;20044;-90
2023/11/15 04:33:41;;;;;;;0.93;0.43;;;;;;;;;;4906532;29;20037;-89
2023/11/15 04:36:14;;;;;;;0.30;0.20;;;;;;;;;;4896937;29;20048;-90
2023/11/15 04:38:59;;;;;;;;;;;;;;;;;;;;;
2023/11/15 04:41:37;;;;;;;0.10;0.10;;;;;;;;;;4907804;29;20058;-90
2023/11/15 04:44:05;;;;;;;0.88;0.52;;;;;;;;;;4910851;29;20064;-90
2023/11/15 04:46:42;;;;;;;1.92;0.98;;;;;;;;;;4892357;29;20120;-89
2023/11/15 04:49:19;;;;;;;2.05;0.75;;;;;;;;;;4892275;29;20129;-90
2023/11/15 04:55:05;;;;;;;1.35;0.40;;;;;;;;;;4912748;29;20067;-89
2023/11/15 04:57:39;;;;;;;0.68;0.38;;;;;;;;;;4899045;29;20044;-89
2023/11/15 05:00:09;;;;;;;0.40;0.25;;;;;;;;;;4895451;29;20131;-89
2023/11/15 05:03:04;;;;;;;1.45;0.35;;;;;;;;;;4914075;29;20124;-88
2023/11/15 05:05:50;;;;;;;1.58;0.55;;;;;;;;;;4889784;29;20052;-88
2023/11/15 05:08:19;;;;;;;1.45;0.28;;;;;;;;;;4875129;29;20047;-89
2023/11/15 05:10:50;;;;;;;0.95;0.47;;;;;;;;;;4878394;29;20044;-89
2023/11/15 05:13:19;;;;;;;0.35;0.20;;;;;;;;;;4880624;29;20052;-89
2023/11/15 05:15:48;;;;;;;0.47;0.38;;;;;;;;;;4868017;29;20059;-88
2023/11/15 05:18:15;;;;;;;0.43;0.28;;;;;;;;;;4884557;29;20521;-88
2023/11/15 05:20:41;;;;;;;1.10;0.63;;;;;;;;;;4880800;29;20768;-88
2023/11/15 05:23:07;;;;;;;0.98;0.57;;;;;;;;;;4877614;29;20053;-88
2023/11/15 05:25:35;;;;;;;1.15;0.45;;;;;;;;;;4896722;29;20045;-88
2023/11/15 05:28:14;;;;;;;6.22;0.40;;;;;;;;;;4870780;29;20103;-89
2023/11/15 05:30:41;;;;;;;0.63;0.50;;;;;;;;;;4880708;29;20049;-89
2023/11/15 05:33:12;;;;;;;0.40;0.20;;;;;;;;;;4884940;29;20071;-90
2023/11/15 05:35:47;;;;;;;4.70;0.38;;;;;;;;;;4876504;29;20072;-90
2023/11/15 05:38:15;;;;;;;1.17;0.60;;;;;;;;;;4872116;29;20045;-89
2023/11/15 05:40:43;;;;;;;1.13;0.70;;;;;;;;;;4874152;29;20049;-89
2023/11/15 05:43:09;;;;;;;2.53;0.82;;;;;;;;;;4871602;29;20048;-89
2023/11/15 05:45:35;;;;;;;0.47;0.25;;;;;;;;;;4879421;29;20041;-88
2023/11/15 05:48:04;;;;;;;2.67;1.00;;;;;;;;;;4884015;29;20487;-89
2023/11/15 05:50:30;;;;;;;0.38;0.28;;;;;;;;;;4873054;29;20088;-90
2023/11/15 05:52:56;;;;;;;0.85;0.52;;;;;;;;;;4880376;29;20044;-88
2023/11/15 05:55:22;;;;;;;0.60;0.20;;;;;;;;;;4879722;29;20055;-87
2023/11/15 05:57:54;;;;;;;0.50;0.22;;;;;;;;;;4873750;29;20044;-89
2023/11/15 06:00:24;;;;;;;2.22;0.60;;;;;;;;;;4872885;29;20459;-88
2023/11/15 06:02:50;;;;;;;1.08;0.73;;;;;;;;;;4882283;29;20052;-88
2023/11/15 06:05:17;;;;;;;0.52;0.40;;;;;;;;;;4874072;29;20041;-88
2023/11/15 06:07:44;;;;;;;1.42;0.85;;;;;;;;;;4880963;29;20039;-88
2023/11/15 06:10:15;;;;;;;2.35;0.95;;;;;;;;;;4883502;29;20045;-88
2023/11/15 06:12:42;;;;;;;1.95;1.13;;;;;;;;;;4892351;23;20052;-88
2023/11/15 06:15:08;;;;;;;2.67;0.85;;;;;;;;;;4884636;29;20055;-89
2023/11/15 06:17:44;;;;;;;11.02;1.45;;;;;;;;;;4916547;23;20044;-87
2023/11/15 06:20:11;;;;;;;4.82;0.90;;;;;;;;;;4913057;29;20048;-89
2023/11/15 06:22:41;;;;;;;1.67;0.88;;;;;;;;;;4912550;29;20048;-89
2023/11/15 06:25:08;;;;;;;1.10;0.52;;;;;;;;;;4911347;29;20051;-87
2023/11/15 06:27:43;;;;;;;0.80;0.70;;;;;;;;;;4910704;29;20043;-88
2023/11/15 06:30:47;;;;;;;;;;;;;;;;;;;;;
2023/11/15 06:33:42;;;;;;;9.75;2.65;;;;;;;;;;4924742;29;20052;-92
2023/11/15 06:36:34;;;;;;;5.88;2.17;;;;;;;;;;4913855;29;20048;-89
2023/11/15 07:07:09;;;;;;;1.65;0.88;;;;;;;;;;5127182;27;20427;-88
2023/11/15 07:09:43;;;;;;;5.95;0.85;;;;;;;;;;5119700;28;20552;-87
2023/11/15 07:12:11;;;;;;;1.70;1.10;;;;;;;;;;5101010;28;20029;-87
2023/11/15 07:14:52;;;;;;;2.30;1.17;;;;;;;;;;5110364;28;20034;-87
2023/11/15 07:17:21;;;;;;;1.42;1.20;;;;;;;;;;5104989;28;20044;-88
2023/11/15 07:20:00;;;;;;;;;;;;;;;;;;;;;
2023/11/15 07:22:27;;;;;;;2.25;0.90;;;;;;;;;;5107088;28;20032;-87
2023/11/15 07:24:55;;;;;;;2.75;1.02;;;;;;;;;;5104348;28;20047;-87
2023/11/15 07:27:26;;;;;;;2.88;1.40;;;;;;;;;;5113002;28;20592;-87
2023/11/15 07:29:55;;;;;;;1.42;0.45;;;;;;;;;;5093419;28;20047;-87
2023/11/15 07:32:23;;;;;;;0.38;0.32;;;;;;;;;;5104706;28;20565;-88
2023/11/15 07:34:54;;;;;;;6.30;1.38;;;;;;;;;;5095330;28;20035;-88
2023/11/15 07:37:34;;;;;;;;;;;;;;;;;;;;;
2023/11/15 07:40:10;;;;;;;1.30;0.60;;;;;;;;;;5103368;28;20038;-87
2023/11/15 07:42:42;;;;;;;0.98;0.38;;;;;;;;;;5102751;28;20036;-88
2023/11/15 07:45:08;;;;;;;;;;;;;;;;;;5103304;28;20044;-88
2023/11/15 07:47:42;;;;;;;5.47;0.65;;;;;;;;;;5105310;28;19918;-88
2023/11/15 07:50:10;;;;;;;2.38;0.82;;;;;;;;;;5104236;28;20095;-88
2023/11/15 07:52:39;;;;;;;3.65;1.50;;;;;;;;;;5093914;28;20055;-87
2023/11/15 07:55:11;;;;;;;3.90;1.63;;;;;;;;;;5104531;28;20027;-88
2023/11/15 07:57:39;;;;;;;7.90;3.55;;;;;;;;;;5112244;28;20044;-88
2023/11/15 08:00:11;;;;;;;9.60;2.95;;;;;;;;;;5104729;28;20528;-87
2023/11/15 08:03:00;;;;;;;4.43;2.53;;;;;;;;;;5096675;28;20055;-88
2023/11/15 08:05:29;;;;;;;2.30;0.60;;;;;;;;;;5091391;28;20124;-88
2023/11/15 08:14:35;;;;;;;3.38;1.25;;;;;;;;;;5083339;28;20040;-89
2023/11/15 08:17:12;;;;;;;2.05;0.80;;;;;;;;;;5088146;28;20039;-89
2023/11/15 08:19:54;;;;;;;3.35;1.10;;;;;;;;;;5087592;28;20090;-89
2023/11/15 08:22:26;;;;;;;8.13;2.35;;;;;;;;;;5085029;28;20020;-89
2023/11/15 08:24:55;;;;;;;4.20;0.73;;;;;;;;;;5088320;28;20051;-89
2023/11/15 08:27:35;;;;;;;2.30;0.85;;;;;;;;;;5085190;28;20388;-89
2023/11/15 08:30:17;;;;;;;0.43;0.28;;;;;;;;;;5080669;28;20563;-89
2023/11/15 08:33:30;;;;;;;;;;;;;;;;;;;;;
2023/11/15 08:39:11;;;;;;;0.60;0.40;;;;;;;;;;5085787;28;20047;-91
2023/11/15 08:42:13;;;;;;;3.60;0.73;;;;;;;;;;5089383;28;20044;-90
2023/11/15 08:44:53;;;;;;;;;;;;;;;;;;;;;
2023/11/15 08:47:25;;;;;;;0.60;0.40;;;;;;;;;;5091681;28;20042;-89
2023/11/15 08:49:54;;;;;;;3.92;0.80;;;;;;;;;;5090078;28;20040;-89
2023/11/15 08:52:27;;;;;;;2.80;0.40;;;;;;;;;;5089274;28;20506;-88
2023/11/15 08:55:27;;;;;;;2.63;1.20;;;;;;;;;;5086983;28;20037;-90
2023/11/15 08:58:14;;;;;;;1.60;0.30;;;;;;;;;;5099026;28;20119;-90
2023/11/15 09:00:54;;;;;;;0.93;0.45;;;;;;;;;;5075592;28;20365;-91
2023/11/15 09:03:28;;;;;;;3.30;0.98;;;;;;;;;;5088072;28;20479;-89
2023/11/15 09:06:08;;;;;;;;;;;;;;;;;;;;;
2023/11/15 09:08:57;;;;;;;0.25;0.20;;;;;;;;;;5084534;28;20699;-90
2023/11/15 09:12:08;;;;;;;0.82;0.40;;;;;;;;;;5057208;28;20114;-89
2023/11/15 09:17:56;;;;;;;3.25;1.50;;;;;;;;;;5082751;28;20120;-88
2023/11/15 09:30:01;;;;;;;;;;;;;;;;;;;;;
2023/11/15 09:38:54;;;;;;;0.82;0.20;;;;;;;;;;5076018;28;20535;-89
2023/11/15 10:46:17;;;;;;;;;;;;;;;;;;;;;
2023/11/15 12:06:53;;;;;;;;;;;;;;;;;;;;;
2023/11/15 13:57:10;;;;;;;;;;;;;;;;;;;;;
2023/11/15 14:26:20;;;;;;;0.43;0.25;;;;;;;;;;4982179;28;20073;-90
2023/11/15 14:29:14;;;;;;;0.40;0.25;;;;;;;;;;4978898;28;20078;-90
2023/11/15 14:32:02;;;;;;;0.25;0.15;;;;;;;;;;4991127;28;20035;-90
2023/11/15 14:34:31;;;;;;;0.90;0.30;;;;;;;;;;4990417;28;20038;-90
2023/11/15 14:36:57;;;;;;;0.10;0.10;;;;;;;;;;4987892;28;20043;-91
2023/11/15 14:42:37;;;;;;;8.13;1.08;;;;;;;;;;4983066;28;20057;-92
2023/11/15 14:48:48;;;;;;;;;;;;;;;;;;;;;
2023/11/15 14:57:39;;;;;;;2.35;1.45;;;;;;;;;;1169222;23;20324;-86
2023/11/15 15:00:20;;;;;;;1.65;0.40;;;;;;;;;;5014298;28;20037;-89
2023/11/15 15:06:12;;;;;;;0.40;0.30;;;;;;;;;;5211800;22;20069;-88
2023/11/15 15:08:49;;;;;;;8.23;2.92;;;;;;;;;;5029588;28;20037;-90
2023/11/15 15:11:18;;;;;;;6.30;2.20;;;;;;;;;;5019922;28;20052;-86
2023/11/15 15:13:44;;;;;;;3.88;1.33;;;;;;;;;;5021833;28;20049;-87
2023/11/15 15:16:10;;;;;;;1.48;0.68;;;;;;;;;;5021622;28;20069;-88
2023/11/15 15:18:38;;;;;;;2.78;1.15;;;;;;;;;;5029698;28;20037;-86
2023/11/15 15:21:04;;;;;;;0.43;0.28;;;;;;;;;;5032048;28;20775;-85
2023/11/15 15:23:30;;;;;;;2.08;0.80;;;;;;;;;;5030541;28;20037;-88
2023/11/15 15:26:26;;;;;;;0.43;0.20;;;;;;;;;;5026659;28;20095;-88
2023/11/15 15:39:26;;;;;;;1.15;0.47;;;;;;;;;;5014360;28;20060;-88
2023/11/15 15:54:32;;;;;;;0.90;0.50;;;;;;;;;;5012613;28;20053;-90
2023/11/15 16:01:00;;;;;;;;;;;;;;;;;;;;;
2023/11/15 16:27:43;;;;;;;3.10;1.23;;;;;;;;;;5603072;23;19925;-91
2023/11/15 16:30:36;;;;;;;7.03;2.10;;;;;;;;;;5000391;28;20144;-93
2023/11/15 16:33:12;;;;;;;1.88;0.95;;;;;;;;;;4976476;28;20046;-93
2023/11/15 16:41:20;;;;;;;4.18;1.98;;;;;;;;;;5087785;22;20057;-91
2023/11/15 16:44:07;;;;;;;1.95;0.93;;;;;;;;;;5015496;28;20050;-91
2023/11/15 16:46:38;;;;;;;2.22;1.45;;;;;;;;;;5019185;28;20531;-91
2023/11/15 16:49:10;;;;;;;5.18;2.08;;;;;;;;;;5015493;28;20034;-90
2023/11/15 16:51:41;;;;;;;4.05;1.17;;;;;;;;;;5013115;28;20365;-90
2023/11/15 16:54:17;;;;;;;5.13;2.30;;;;;;;;;;5009615;28;20154;-92
2023/11/15 16:57:10;;;;;;;5.80;1.90;;;;;;;;;;5006086;28;20496;-93
2023/11/15 17:00:13;;;;;;;7.30;1.40;;;;;;;;;;5041618;23;20062;-92
2023/11/15 17:02:54;;;;;;;2.15;1.20;;;;;;;;;;5002276;28;20038;-90
2023/11/15 17:08:52;;;;;;;2.38;1.25;;;;;;;;;;5042432;22;20061;-91
2023/11/15 18:43:07;;;;;;;5.47;2.17;;;;;;;;;;4978758;28;20054;-92
2023/11/15 19:02:39;;;;;;;5.18;2.38;;;;;;;;;;5176116;22;20069;-91
2023/11/15 19:07:48;;;;;;;4.28;2.63;;;;;;;;;;5793379;22;20061;-91
2023/11/15 19:16:07;;;;;;;10.85;3.08;;;;;;;;;;5342622;22;20049;-93
2023/11/15 19:22:00;;;;;;;8.77;4.88;;;;;;;;;;5103465;23;20061;-91
2023/11/15 19:24:28;;;;;;;14.40;5.63;;;;;;;;;;5011912;28;20056;-89
2023/11/15 19:27:15;;;;;;;8.25;2.65;;;;;;;;;;5123141;22;20505;-90
2023/11/15 19:38:00;;;;;;;8.80;4.82;;;;;;;;;;5017412;28;20061;-89
2023/11/15 19:40:53;;;;;;;7.07;3.75;;;;;;;;;;5025216;28;20049;-87
2023/11/15 19:43:27;;;;;;;3.38;2.35;;;;;;;;;;5013719;28;20041;-88
2023/11/15 19:45:59;;;;;;;5.05;1.48;;;;;;;;;;5010239;28;20037;-86
2023/11/15 19:51:43;;;;;;;1.15;0.88;;;;;;;;;;4990493;28;20046;-88
2023/11/15 19:54:12;;;;;;;0.20;0.20;;;;;;;;;;4993899;28;20045;-86
2023/11/15 19:56:38;;;;;;;1.88;0.60;;;;;;;;;;5005171;28;20513;-86
2023/11/15 19:59:07;;;;;;;2.55;1.55;;;;;;;;;;5009268;28;20110;-86
2023/11/15 20:01:39;;;;;;;4.00;1.52;;;;;;;;;;5000294;28;20517;-86
2023/11/15 20:04:05;;;;;;;3.72;1.45;;;;;;;;;;5026085;28;20041;-86
2023/11/15 20:06:31;;;;;;;2.22;1.30;;;;;;;;;;5022831;28;20065;-85
2023/11/15 20:09:03;;;;;;;2.88;1.90;;;;;;;;;;5030267;28;20461;-87
2023/11/15 20:11:29;;;;;;;4.20;1.98;;;;;;;;;;5027359;28;20053;-89
2023/11/15 20:16:46;;;;;;;2.00;0.93;;;;;;;;;;5042930;23;20132;-88
2023/11/15 20:19:41;;;;;;;2.88;1.38;;;;;;;;;;5029463;28;20049;-88
2023/11/15 20:22:17;;;;;;;;;;;;;;;;;;;;;
2023/11/15 20:39:02;;;;;;;3.42;1.27;;;;;;;;;;4976963;28;20034;-87
2023/11/15 20:41:29;;;;;;;1.05;0.47;;;;;;;;;;4984148;28;20049;-87
2023/11/15 21:00:34;;;;;;;4.10;1.52;;;;;;;;;;5316799;23;20427;-87
